Terminal Aerodrome Forecast
Issued by NWS Brownsville, TX

Home | Current Version | Previous Version | Text Only | Print | Product List | Glossary On
Versions: 1 2 3 4 5 6 7 8 9 10 11 12 13 14 15 16 17 18
000
FTUS44 KBRO 240500
TAFMFE
TAF
KMFE 240532Z 2406/2506 11008KT P6SM FEW250
     FM241000 VRB04KT P6SM FEW015
     FM241500 16008KT P6SM FEW025
     FM242000 13012KT P6SM SCT040 BKN060
     FM242300 10015KT P6SM FEW060 SCT090 BKN250
     FM250300 12008KT P6SM SCT150 BKN250=

USA.gov is the U.S. government's official web portal to all federal, state and local government web resources and services.